Time;durP1;ratioP1;P1;durP2;ratioP2;P2;SDS_P1;SDS_P2;PMS_P1;PMS_P2;Temp;Humidity;BMP_temperature;BMP_pressure;BME280_temperature;BME280_humidity;BME280_pressure;Samples;Min_cycle;Max_cycle;Signal;HPM_P1;HPM_P2
2023/12/10 00:02:01;;;;;;;20.08;3.15;;;;;;;6.74;100.00;100348.16;5036402;28;20065;-73
2023/12/10 00:04:27;;;;;;;22.67;4.13;;;;;;;6.70;100.00;100347.88;5036686;28;20048;-73
2023/12/10 00:06:53;;;;;;;22.48;3.30;;;;;;;6.66;100.00;100351.50;5036444;28;20411;-73
2023/12/10 00:09:19;;;;;;;24.55;3.75;;;;;;;6.65;100.00;100353.41;5036329;28;20500;-73
2023/12/10 00:11:44;;;;;;;23.95;3.25;;;;;;;6.64;100.00;100361.97;5035064;28;20033;-73
2023/12/10 00:14:09;;;;;;;19.33;2.72;;;;;;;6.66;100.00;100351.50;5035147;28;20048;-73
2023/12/10 00:16:35;;;;;;;16.35;2.55;;;;;;;6.61;100.00;100359.75;5018520;28;20083;-73
2023/12/10 00:19:00;;;;;;;21.85;2.97;;;;;;;6.56;100.00;100376.28;5041171;28;20505;-73
2023/12/10 00:21:26;;;;;;;13.93;2.72;;;;;;;6.54;100.00;100386.75;5036045;28;20029;-73
2023/12/10 00:23:51;;;;;;;14.98;3.28;;;;;;;6.48;100.00;100381.22;5036411;28;20517;-73
2023/12/10 00:26:17;;;;;;;20.05;2.83;;;;;;;6.44;100.00;100396.66;5035110;28;20091;-73
2023/12/10 00:28:43;;;;;;;16.45;3.25;;;;;;;6.43;100.00;100386.69;5036421;28;20033;-73
2023/12/10 00:31:09;;;;;;;15.43;2.83;;;;;;;6.49;100.00;100387.53;5036067;28;20148;-73
2023/12/10 00:33:34;;;;;;;19.85;3.40;;;;;;;6.44;100.00;100388.38;5035233;28;20033;-73
2023/12/10 00:36:00;;;;;;;22.17;3.28;;;;;;;6.39;100.00;100385.59;5036343;28;20050;-73
2023/12/10 00:38:26;;;;;;;16.10;2.45;;;;;;;6.43;100.00;100397.72;5036500;28;20021;-73
2023/12/10 00:40:51;;;;;;;15.88;2.75;;;;;;;6.41;100.00;100393.63;5037932;28;20029;-73
2023/12/10 00:43:17;;;;;;;22.02;3.35;;;;;;;6.43;100.00;100380.34;5036757;28;20042;-73
2023/12/10 00:45:43;;;;;;;16.13;3.25;;;;;;;6.41;100.00;100383.41;5034346;28;20040;-73
2023/12/10 00:48:08;;;;;;;18.88;3.20;;;;;;;6.43;100.00;100366.56;5002231;28;20072;-73
2023/12/10 00:50:34;;;;;;;18.33;2.75;;;;;;;6.43;100.00;100347.25;5043391;28;20425;-73
2023/12/10 00:53:03;;;;;;;19.25;2.75;;;;;;;6.40;100.00;100339.53;5034825;28;20029;-73
2023/12/10 00:55:28;;;;;;;20.35;3.22;;;;;;;6.36;100.00;100347.53;5018426;28;20088;-73
2023/12/10 00:57:53;;;;;;;19.38;2.90;;;;;;;6.36;100.00;100353.03;5035142;28;20037;-73
2023/12/10 01:00:19;;;;;;;19.40;2.63;;;;;;;6.36;100.00;100397.16;5035705;28;20056;-73
2023/12/10 01:02:45;;;;;;;25.25;3.33;;;;;;;6.32;100.00;100396.03;5034844;28;20069;-73
2023/12/10 01:05:10;;;;;;;22.73;2.92;;;;;;;6.37;100.00;100409.84;5034750;28;20029;-73
2023/12/10 01:07:36;;;;;;;15.38;3.50;;;;;;;6.36;100.00;100402.69;5035986;28;20028;-73
2023/12/10 01:10:05;;;;;;;23.42;2.90;;;;;;;6.36;100.00;100386.13;5035975;28;20040;-73
2023/12/10 01:12:33;;;;;;;20.48;3.08;;;;;;;6.34;100.00;100421.44;5036080;28;20022;-73
2023/12/10 01:14:58;;;;;;;29.30;3.70;;;;;;;6.39;100.00;100426.97;5034436;28;20040;-73
2023/12/10 01:17:24;;;;;;;22.05;2.70;;;;;;;6.34;100.00;100437.97;5034494;28;20049;-73
2023/12/10 01:19:49;;;;;;;21.48;2.88;;;;;;;6.39;100.00;100424.22;5044834;28;20048;-73
2023/12/10 01:22:15;;;;;;;23.48;3.25;;;;;;;6.41;100.00;100419.28;5021449;28;20033;-73
2023/12/10 01:24:41;;;;;;;18.45;2.90;;;;;;;6.44;100.00;100409.63;5040766;28;20413;-73
2023/12/10 01:27:06;;;;;;;25.60;3.90;;;;;;;6.41;100.00;100422.03;5039758;28;20037;-73
2023/12/10 01:29:32;;;;;;;19.77;3.33;;;;;;;6.40;100.00;100412.06;5038350;28;20025;-73
2023/12/10 01:31:57;;;;;;;23.92;3.55;;;;;;;6.41;100.00;100415.69;5039888;28;20018;-73
2023/12/10 01:34:23;;;;;;;25.15;3.85;;;;;;;6.41;100.00;100424.78;5039878;28;20033;-73
2023/12/10 01:36:49;;;;;;;23.60;3.60;;;;;;;6.40;100.00;100408.50;5039762;28;20025;-73
2023/12/10 01:39:15;;;;;;;14.63;2.80;;;;;;;6.37;100.00;100420.88;5037179;28;20025;-73
2023/12/10 01:41:41;;;;;;;15.88;2.80;;;;;;;6.42;100.00;100420.09;5025058;28;20406;-73
2023/12/10 01:44:06;;;;;;;22.25;3.80;;;;;;;6.41;100.00;100411.00;5038200;28;20029;-73
2023/12/10 01:46:31;;;;;;;22.17;3.38;;;;;;;6.39;100.00;100407.66;5038937;28;20390;-73
2023/12/10 01:48:57;;;;;;;21.83;3.30;;;;;;;6.40;100.00;100406.56;5039395;28;20037;-73
2023/12/10 01:51:22;;;;;;;19.35;3.78;;;;;;;6.38;100.00;100399.66;5046285;28;20033;-73
2023/12/10 01:53:48;;;;;;;20.55;3.30;;;;;;;6.37;100.00;100398.81;5038060;28;20044;-73
2023/12/10 01:56:14;;;;;;;16.42;3.22;;;;;;;6.39;100.00;100407.66;5039471;28;20021;-73
2023/12/10 01:58:39;;;;;;;27.63;4.25;;;;;;;6.39;100.00;100398.56;5039130;28;20030;-73
2023/12/10 02:01:05;;;;;;;21.58;3.40;;;;;;;6.42;100.00;100392.50;5021394;28;20044;-73
2023/12/10 02:03:31;;;;;;;22.73;3.90;;;;;;;6.44;100.00;100393.91;5039012;28;20057;-72
2023/12/10 02:05:56;;;;;;;19.42;3.03;;;;;;;6.44;100.00;100390.31;5021509;28;20394;-73
2023/12/10 02:08:22;;;;;;;23.92;3.53;;;;;;;6.46;100.00;100380.66;5038887;28;20099;-73
2023/12/10 02:10:47;;;;;;;24.25;3.42;;;;;;;6.47;100.00;100389.78;5039003;28;20040;-73
2023/12/10 02:13:13;;;;;;;28.27;3.67;;;;;;;6.45;100.00;100381.75;5037727;28;20032;-73
2023/12/10 02:15:39;;;;;;;16.25;2.95;;;;;;;6.44;100.00;100388.38;5004418;28;20041;-73
2023/12/10 02:18:04;;;;;;;24.38;3.22;;;;;;;6.44;100.00;100382.03;5020962;28;20060;-73
2023/12/10 02:20:30;;;;;;;20.35;3.60;;;;;;;6.44;100.00;100377.34;5038619;28;20033;-73
2023/12/10 02:23:07;;;;;;;25.67;3.72;;;;;;;6.45;100.00;100383.69;5038513;28;20030;-73
2023/12/10 02:25:37;;;;;;;21.20;2.92;;;;;;;6.42;100.00;100385.06;5020711;28;20055;-73
2023/12/10 02:28:03;;;;;;;29.10;4.32;;;;;;;6.39;100.00;100388.34;5020616;28;20474;-73
2023/12/10 02:30:28;;;;;;;19.55;3.47;;;;;;;6.36;100.00;100386.13;5037125;28;20103;-73
2023/12/10 02:32:54;;;;;;;25.55;4.22;;;;;;;6.38;100.00;100383.09;5035939;28;20050;-73
2023/12/10 02:35:19;;;;;;;24.60;3.38;;;;;;;6.35;100.00;100386.38;5038692;28;20164;-73
2023/12/10 02:37:45;;;;;;;22.63;3.67;;;;;;;6.28;100.00;100394.91;5038384;28;20504;-73
2023/12/10 02:40:11;;;;;;;20.77;3.47;;;;;;;6.28;100.00;100394.91;5038514;28;20478;-73
2023/12/10 02:42:36;;;;;;;19.73;3.15;;;;;;;6.27;100.00;100393.28;5036782;28;20030;-73
2023/12/10 02:45:02;;;;;;;23.08;3.78;;;;;;;6.21;100.00;100394.31;5035406;28;20033;-73
2023/12/10 02:47:28;;;;;;;20.05;3.38;;;;;;;6.22;100.00;100398.75;5038123;28;20029;-73
2023/12/10 02:49:53;;;;;;;23.65;3.17;;;;;;;6.19;100.00;100396.53;5040793;28;20037;-73
2023/12/10 02:52:20;;;;;;;26.77;3.75;;;;;;;6.15;100.00;100404.50;5040695;28;20025;-72
2023/12/10 02:54:45;;;;;;;25.65;3.22;;;;;;;6.14;100.00;100404.78;5036951;28;20402;-73
2023/12/10 02:57:11;;;;;;;28.27;4.15;;;;;;;6.10;100.00;100398.13;5038030;28;20029;-73
2023/12/10 02:59:36;;;;;;;24.17;3.70;;;;;;;6.09;100.00;100393.72;5037924;28;20428;-73
2023/12/10 03:02:02;;;;;;;24.88;4.55;;;;;;;6.10;100.00;100392.59;5036751;28;20034;-72
2023/12/10 03:04:27;;;;;;;30.63;4.10;;;;;;;6.07;100.00;100388.47;5036850;28;20124;-72
2023/12/10 03:06:53;;;;;;;29.33;4.13;;;;;;;6.05;100.00;100390.66;5020168;28;20393;-72
2023/12/10 03:09:18;;;;;;;20.35;3.70;;;;;;;6.06;100.00;100397.00;5037899;28;20025;-73
2023/12/10 03:11:44;;;;;;;25.50;4.75;;;;;;;6.04;100.00;100394.50;5020149;28;20029;-73
2023/12/10 03:14:09;;;;;;;19.67;3.13;;;;;;;6.00;100.00;100387.88;5037634;28;20026;-73
2023/12/10 03:16:34;;;;;;;20.90;2.90;;;;;;;5.99;100.00;100397.22;5037667;28;20079;-73
2023/12/10 03:19:00;;;;;;;21.23;2.80;;;;;;;6.00;100.00;100394.22;5036122;28;20058;-73
2023/12/10 03:21:25;;;;;;;22.95;3.17;;;;;;;5.94;100.00;100387.03;5030816;28;20032;-73
2023/12/10 03:23:51;;;;;;;23.13;4.28;;;;;;;5.92;100.00;100380.91;5037697;28;20104;-73
2023/12/10 03:26:16;;;;;;;21.75;4.60;;;;;;;5.93;100.00;100382.59;5036238;28;20402;-73
2023/12/10 03:28:42;;;;;;;22.85;3.33;;;;;;;5.98;100.00;100377.09;5037392;28;20034;-73
2023/12/10 03:31:07;;;;;;;25.10;4.00;;;;;;;5.99;100.00;100362.25;5036122;28;20033;-73
2023/12/10 03:33:34;;;;;;;23.45;4.28;;;;;;;5.95;100.00;100358.34;5037542;28;20025;-73
2023/12/10 03:36:00;;;;;;;19.95;3.13;;;;;;;5.95;100.00;100357.53;5037641;28;20052;-73
2023/12/10 03:38:26;;;;;;;21.25;3.25;;;;;;;5.93;100.00;100346.75;5003786;28;20124;-73
2023/12/10 03:40:51;;;;;;;22.42;2.97;;;;;;;5.96;100.00;100353.66;5037131;28;20040;-73
2023/12/10 03:43:17;;;;;;;21.70;4.15;;;;;;;5.90;100.00;100354.69;5034457;28;20509;-73
2023/12/10 03:45:42;;;;;;;19.67;3.67;;;;;;;5.90;100.00;100354.69;5035198;28;20079;-73
2023/12/10 03:48:08;;;;;;;18.80;3.42;;;;;;;5.85;100.00;100350.00;5037207;28;20030;-73
2023/12/10 03:50:33;;;;;;;22.27;3.33;;;;;;;5.85;100.00;100340.88;5043956;28;20082;-73
2023/12/10 03:52:59;;;;;;;20.63;3.40;;;;;;;5.86;100.00;100345.31;5036274;28;20029;-73
2023/12/10 03:55:24;;;;;;;19.95;3.22;;;;;;;5.78;100.00;100347.47;5037656;28;20036;-73
2023/12/10 03:57:50;;;;;;;23.58;4.53;;;;;;;5.79;100.00;100342.78;5037006;28;20524;-73
2023/12/10 04:00:16;;;;;;;25.40;3.13;;;;;;;5.79;100.00;100351.03;5036659;28;20048;-73
2023/12/10 04:02:42;;;;;;;19.42;3.00;;;;;;;5.73;100.00;100341.91;5036961;28;20021;-73
2023/12/10 04:05:11;;;;;;;20.92;3.70;;;;;;;5.67;100.00;100348.50;5035682;28;20586;-72
2023/12/10 04:07:40;;;;;;;26.70;4.03;;;;;;;5.71;100.00;100346.03;5036764;28;20104;-73
2023/12/10 04:10:07;;;;;;;13.70;2.80;;;;;;;5.70;100.00;100359.00;5035543;28;20037;-73
2023/12/10 04:12:32;;;;;;;16.00;2.83;;;;;;;5.70;100.00;100367.25;5035802;28;20022;-72
2023/12/10 04:14:58;;;;;;;25.30;3.60;;;;;;;5.69;100.00;100367.53;5036336;28;20038;-72
2023/12/10 04:17:24;;;;;;;21.35;4.05;;;;;;;5.69;100.00;100373.03;5036567;28;20113;-72
2023/12/10 04:19:49;;;;;;;15.40;3.03;;;;;;;5.68;100.00;100372.19;5035863;28;20093;-73
2023/12/10 04:22:15;;;;;;;21.77;3.70;;;;;;;5.69;100.00;100373.88;5045772;28;20038;-73
2023/12/10 04:24:42;;;;;;;21.80;3.40;;;;;;;5.69;100.00;100384.91;5035175;28;20049;-72
2023/12/10 04:27:07;;;;;;;21.10;3.33;;;;;;;5.68;100.00;100391.47;5035224;28;20033;-73
2023/12/10 04:29:33;;;;;;;20.92;3.83;;;;;;;5.66;100.00;100385.44;5036066;28;20482;-73
2023/12/10 04:31:58;;;;;;;26.67;2.88;;;;;;;5.66;100.00;100382.66;5038527;28;20099;-72
2023/12/10 04:34:23;;;;;;;14.23;2.60;;;;;;;5.70;100.00;100389.28;5000551;28;20030;-73
2023/12/10 04:36:49;;;;;;;15.43;3.28;;;;;;;5.69;100.00;100384.91;5036389;28;20029;-72
2023/12/10 04:39:15;;;;;;;20.08;3.03;;;;;;;5.67;100.00;100375.22;5036302;28;20039;-73
2023/12/10 04:41:41;;;;;;;12.52;2.80;;;;;;;5.70;100.00;100385.72;5035013;28;20030;-72
2023/12/10 04:44:07;;;;;;;25.20;3.75;;;;;;;5.75;100.00;100380.25;5017035;28;20076;-73
2023/12/10 04:46:32;;;;;;;24.05;3.83;;;;;;;5.78;100.00;100372.28;5034570;28;20440;-73
2023/12/10 04:48:58;;;;;;;23.80;3.17;;;;;;;5.86;100.00;100362.69;5068231;28;20470;-73
2023/12/10 04:51:24;;;;;;;23.52;3.53;;;;;;;5.92;100.00;100360.78;5042103;28;20029;-72
2023/12/10 04:53:50;;;;;;;18.73;3.38;;;;;;;5.93;100.00;100365.19;5017401;28;20036;-73
2023/12/10 04:56:19;;;;;;;29.23;3.95;;;;;;;5.97;100.00;100360.84;5028882;28;20120;-72
2023/12/10 04:58:44;;;;;;;23.42;4.13;;;;;;;6.06;100.00;100359.22;5035730;28;20029;-73
2023/12/10 05:01:10;;;;;;;36.35;3.83;;;;;;;6.12;100.00;100357.34;5034907;28;20536;-73
2023/12/10 05:03:35;;;;;;;21.35;3.67;;;;;;;6.20;100.00;100360.41;5018273;28;20038;-73
2023/12/10 05:06:01;;;;;;;23.33;3.75;;;;;;;6.21;100.00;100358.47;5018658;28;20025;-73
2023/12/10 05:08:26;;;;;;;20.58;3.85;;;;;;;6.25;100.00;100365.13;5016789;28;20168;-72
2023/12/10 05:10:52;;;;;;;25.27;4.38;;;;;;;6.28;100.00;100361.00;5036253;28;20026;-73
2023/12/10 05:13:17;;;;;;;30.85;5.00;;;;;;;6.29;100.00;100355.19;5036220;28;20105;-73
2023/12/10 05:15:43;;;;;;;19.95;3.00;;;;;;;6.34;100.00;100355.22;5018274;28;20029;-73
2023/12/10 05:18:08;;;;;;;24.27;3.53;;;;;;;6.37;100.00;100356.63;5034483;28;20037;-73
2023/12/10 05:20:34;;;;;;;22.58;3.72;;;;;;;6.43;100.00;100350.84;5035875;28;20039;-73
2023/12/10 05:22:59;;;;;;;20.55;3.67;;;;;;;6.43;100.00;100347.25;5038812;28;20025;-73
2023/12/10 05:25:27;;;;;;;30.85;4.30;;;;;;;6.47;100.00;100340.13;5034619;28;20041;-73
2023/12/10 05:27:53;;;;;;;22.98;3.25;;;;;;;6.51;100.00;100327.41;5035747;28;20026;-73
2023/12/10 05:30:19;;;;;;;30.70;3.50;;;;;;;6.52;100.00;100323.56;5034428;28;20037;-73
2023/12/10 05:32:44;;;;;;;19.45;3.33;;;;;;;6.59;100.00;100313.09;5018287;28;20466;-73
2023/12/10 05:35:09;;;;;;;24.33;3.53;;;;;;;6.59;100.00;100309.50;5034598;28;20026;-73
2023/12/10 05:37:35;;;;;;;24.02;3.47;;;;;;;6.59;100.00;100310.34;5035624;28;20041;-73
2023/12/10 05:40:00;;;;;;;28.88;3.70;;;;;;;6.59;100.00;100307.56;5018342;28;20033;-73
2023/12/10 05:42:27;;;;;;;26.65;3.78;;;;;;;6.63;100.00;100294.06;5017249;28;20030;-73
2023/12/10 05:44:54;;;;;;;23.95;3.58;;;;;;;6.62;100.00;100286.88;5023664;28;20029;-73
2023/12/10 05:47:19;;;;;;;24.80;3.80;;;;;;;6.61;100.00;100271.44;5034360;28;20025;-73
2023/12/10 05:49:45;;;;;;;27.80;3.55;;;;;;;6.59;100.00;100248.81;5019262;28;20033;-73
2023/12/10 05:52:10;;;;;;;23.95;4.00;;;;;;;6.60;100.00;100248.53;5038783;28;20026;-73
2023/12/10 05:54:36;;;;;;;23.20;3.20;;;;;;;6.62;100.00;100237.22;5035774;28;20048;-73
2023/12/10 05:57:01;;;;;;;24.35;3.85;;;;;;;6.55;100.00;100239.44;5035770;28;20029;-73
2023/12/10 05:59:26;;;;;;;28.10;3.72;;;;;;;6.54;100.00;100238.59;5035102;28;20032;-73
2023/12/10 06:01:52;;;;;;;19.42;3.10;;;;;;;6.51;100.00;100230.84;5035416;28;20040;-73
2023/12/10 06:04:18;;;;;;;22.02;3.63;;;;;;;6.47;100.00;100215.97;5035472;28;20029;-73
2023/12/10 06:06:43;;;;;;;28.17;3.25;;;;;;;6.45;100.00;100224.50;5034917;28;20474;-73
2023/12/10 06:09:09;;;;;;;24.52;3.10;;;;;;;6.42;100.00;100227.81;5037724;28;20040;-73
2023/12/10 06:11:34;;;;;;;23.80;3.88;;;;;;;6.43;100.00;100218.41;5038998;28;20033;-72
2023/12/10 06:14:00;;;;;;;18.30;3.30;;;;;;;6.41;100.00;100203.28;5037556;28;20036;-73
2023/12/10 06:16:25;;;;;;;22.63;3.50;;;;;;;6.37;100.00;100200.22;5038899;28;20046;-73
2023/12/10 06:18:51;;;;;;;30.33;4.30;;;;;;;6.34;100.00;100213.72;5038542;28;20498;-73
2023/12/10 06:21:16;;;;;;;24.40;3.45;;;;;;;6.35;100.00;100207.97;5040492;28;20029;-73
2023/12/10 06:23:42;;;;;;;27.10;4.43;;;;;;;6.30;100.00;100218.97;5037514;28;20367;-73
2023/12/10 06:26:07;;;;;;;30.52;3.75;;;;;;;6.24;100.00;100240.19;5037439;28;20029;-73
2023/12/10 06:28:33;;;;;;;27.30;4.85;;;;;;;6.28;100.00;100248.75;5037221;28;20037;-73
2023/12/10 06:30:58;;;;;;;28.75;3.65;;;;;;;6.27;100.00;100249.88;5038643;28;20057;-73
2023/12/10 06:33:25;;;;;;;32.17;3.78;;;;;;;6.23;100.00;100249.56;5038519;28;20026;-73
2023/12/10 06:35:51;;;;;;;29.40;4.60;;;;;;;6.24;100.00;100250.38;5039042;28;20057;-73
2023/12/10 06:38:16;;;;;;;36.58;4.72;;;;;;;6.21;100.00;100246.25;5038588;28;20040;-73
2023/12/10 06:40:41;;;;;;;29.10;5.13;;;;;;;6.24;100.00;100242.09;5038476;28;20076;-73
2023/12/10 06:43:07;;;;;;;27.30;3.38;;;;;;;6.21;100.00;100240.75;5038310;28;20040;-73
2023/12/10 06:45:32;;;;;;;37.67;4.13;;;;;;;6.19;100.00;100237.41;5038013;28;20030;-73
2023/12/10 06:47:58;;;;;;;34.55;4.85;;;;;;;6.20;100.00;100241.00;5038265;28;20546;-73
2023/12/10 06:50:24;;;;;;;30.92;4.07;;;;;;;6.23;100.00;100245.97;5020885;28;20029;-73
2023/12/10 06:52:49;;;;;;;33.10;4.50;;;;;;;6.22;100.00;100239.63;5037102;28;20109;-73
2023/12/10 06:55:15;;;;;;;34.65;4.45;;;;;;;6.24;100.00;100234.69;5036898;28;20033;-73
2023/12/10 06:57:40;;;;;;;33.22;4.45;;;;;;;6.28;100.00;100240.47;5037827;28;20033;-73
2023/12/10 07:00:06;;;;;;;36.22;4.32;;;;;;;6.35;100.00;100238.28;5035887;28;20533;-73
2023/12/10 07:02:32;;;;;;;28.88;3.70;;;;;;;6.35;100.00;100235.53;5003780;28;20522;-73
2023/12/10 07:04:57;;;;;;;34.63;4.18;;;;;;;6.34;100.00;100233.88;5038120;28;20044;-72
2023/12/10 07:07:23;;;;;;;27.27;4.32;;;;;;;6.35;100.00;100231.94;5037754;28;20540;-73
2023/12/10 07:09:48;;;;;;;34.00;4.35;;;;;;;6.37;100.00;100222.28;5038059;28;20036;-73
2023/12/10 07:12:14;;;;;;;21.05;3.30;;;;;;;6.41;100.00;100222.59;5037785;28;20047;-73
2023/12/10 07:14:39;;;;;;;35.13;4.40;;;;;;;6.41;100.00;100211.56;5019891;28;20026;-73
2023/12/10 07:17:05;;;;;;;31.67;4.88;;;;;;;6.44;100.00;100214.59;5037559;28;20045;-72
2023/12/10 07:19:30;;;;;;;26.35;4.63;;;;;;;6.46;100.00;100212.38;5019086;28;20026;-73
2023/12/10 07:21:56;;;;;;;26.25;4.13;;;;;;;6.47;100.00;100211.28;5036730;28;20034;-73
2023/12/10 07:24:22;;;;;;;31.95;5.38;;;;;;;6.43;100.00;100204.63;5019960;28;20033;-73
2023/12/10 07:26:47;;;;;;;36.83;4.07;;;;;;;6.49;100.00;100214.59;5019722;28;20389;-73
2023/12/10 07:29:13;;;;;;;41.53;4.38;;;;;;;6.46;100.00;100204.09;5037295;28;20033;-73
2023/12/10 07:31:39;;;;;;;33.47;4.20;;;;;;;6.48;100.00;100204.63;4987402;28;20052;-73
2023/12/10 07:34:04;;;;;;;33.33;4.53;;;;;;;6.50;100.00;100198.88;5037412;28;20037;-73
2023/12/10 07:36:29;;;;;;;27.95;4.55;;;;;;;6.51;100.00;100196.94;5037374;28;20079;-73
2023/12/10 07:38:55;;;;;;;27.13;3.45;;;;;;;6.45;100.00;100193.34;5037519;28;20033;-73
2023/12/10 07:41:21;;;;;;;30.60;4.32;;;;;;;6.47;100.00;100193.91;5037221;28;20140;-73
2023/12/10 07:43:46;;;;;;;27.52;4.05;;;;;;;6.48;100.00;100185.31;5036057;28;20056;-73
2023/12/10 07:46:12;;;;;;;35.75;4.90;;;;;;;6.51;100.00;100177.63;5032095;28;20025;-72
2023/12/10 07:48:37;;;;;;;38.28;4.75;;;;;;;6.49;100.00;100178.72;5031717;28;20367;-73
2023/12/10 07:51:03;;;;;;;34.15;5.18;;;;;;;6.46;100.00;100170.16;5044012;28;20030;-73
2023/12/10 07:53:28;;;;;;;28.77;4.47;;;;;;;6.46;100.00;100157.22;5017994;28;20072;-73
2023/12/10 07:55:54;;;;;;;28.90;4.53;;;;;;;6.46;100.00;100146.19;5002899;28;20030;-73
2023/12/10 07:58:19;;;;;;;32.90;4.10;;;;;;;6.47;100.00;100150.56;5035988;28;20104;-73
2023/12/10 08:00:47;;;;;;;31.48;4.40;;;;;;;6.49;100.00;100145.63;5019158;28;20029;-73
2023/12/10 08:03:13;;;;;;;42.60;4.88;;;;;;;6.49;100.00;100133.72;5036910;28;20033;-73
2023/12/10 08:05:39;;;;;;;32.85;4.20;;;;;;;6.53;100.00;100120.25;5002633;28;20117;-73
2023/12/10 08:08:04;;;;;;;36.65;5.25;;;;;;;6.53;100.00;100123.00;5036853;28;20497;-73
2023/12/10 08:10:30;;;;;;;39.55;5.25;;;;;;;6.54;100.00;100122.69;5036757;28;20037;-73
2023/12/10 08:12:55;;;;;;;28.63;3.95;;;;;;;6.55;100.00;100134.59;5036840;28;20036;-73
2023/12/10 08:15:21;;;;;;;24.55;4.03;;;;;;;6.56;100.00;100130.72;5036449;28;20029;-73
2023/12/10 08:17:46;;;;;;;39.75;4.85;;;;;;;6.58;100.00;100125.75;5018870;28;20421;-73
2023/12/10 08:20:12;;;;;;;38.42;5.00;;;;;;;6.59;100.00;100106.16;5036444;28;20068;-73
2023/12/10 08:22:37;;;;;;;43.08;5.32;;;;;;;6.61;100.00;100114.16;5019010;28;20053;-73
2023/12/10 08:25:04;;;;;;;39.35;5.35;;;;;;;6.65;100.00;100110.53;5036581;28;20389;-73
2023/12/10 08:27:29;;;;;;;34.88;4.72;;;;;;;6.66;100.00;100111.41;5035097;28;20037;-73
2023/12/10 08:29:55;;;;;;;35.78;4.82;;;;;;;6.71;100.00;100105.84;5034889;28;20037;-73
2023/12/10 08:32:21;;;;;;;38.92;5.13;;;;;;;6.77;100.00;100103.91;5036552;28;20044;-73
2023/12/10 08:34:46;;;;;;;37.55;4.40;;;;;;;6.79;100.00;100102.53;5032990;28;20025;-73
2023/12/10 08:37:12;;;;;;;38.22;4.90;;;;;;;6.87;100.00;100092.84;5031047;28;20033;-73
2023/12/10 08:39:38;;;;;;;48.72;5.95;;;;;;;6.91;100.00;100100.31;4999918;28;20026;-73
2023/12/10 08:42:08;;;;;;;46.25;5.43;;;;;;;6.97;100.00;100103.06;5010626;28;20033;-73
2023/12/10 08:44:33;;;;;;;41.08;6.10;;;;;;;7.04;100.00;100093.34;5034381;28;20060;-73
2023/12/10 08:46:58;;;;;;;41.25;5.80;;;;;;;7.10;100.00;100096.94;5035223;28;20022;-73
2023/12/10 08:49:24;;;;;;;58.50;5.90;;;;;;;7.18;100.00;100093.59;5036172;28;20045;-73
2023/12/10 08:51:49;;;;;;;33.00;4.97;;;;;;;7.23;100.00;100079.75;5042672;28;20048;-73
2023/12/10 08:54:15;;;;;;;47.88;5.75;;;;;;;7.28;100.00;100076.97;5013552;28;20040;-73
2023/12/10 08:56:40;;;;;;;46.10;6.13;;;;;;;7.34;100.00;100062.03;5036248;28;20041;-73
2023/12/10 08:59:06;;;;;;;51.95;5.60;;;;;;;7.38;100.00;100057.63;5035655;28;20548;-73
2023/12/10 09:01:31;;;;;;;41.72;5.43;;;;;;;7.47;100.00;100057.03;5018348;28;20030;-73
2023/12/10 09:03:57;;;;;;;56.63;6.00;;;;;;;7.55;100.00;100061.91;5036215;28;20509;-73
2023/12/10 09:06:22;;;;;;;42.63;5.30;;;;;;;7.60;100.00;100053.59;5034975;28;20080;-73
2023/12/10 09:08:48;;;;;;;41.08;5.47;;;;;;;7.71;100.00;100055.19;5034692;28;20135;-73
2023/12/10 09:11:14;;;;;;;47.83;6.13;;;;;;;7.77;100.00;100047.69;5036019;28;20033;-73
2023/12/10 09:13:39;;;;;;;58.47;6.25;;;;;;;7.82;100.00;100040.19;5035669;28;20025;-73
2023/12/10 09:16:06;;;;;;;54.65;5.97;;;;;;;7.87;100.00;100036.56;5035971;28;20037;-73
2023/12/10 09:18:31;;;;;;;59.97;6.70;;;;;;;7.94;100.00;100039.00;5035800;28;20060;-73
2023/12/10 09:20:57;;;;;;;55.83;5.82;;;;;;;7.97;100.00;100047.56;5035697;28;20053;-73
2023/12/10 09:23:23;;;;;;;65.50;7.03;;;;;;;8.02;100.00;100041.16;5032445;28;20032;-73
2023/12/10 09:25:48;;;;;;;57.60;7.68;;;;;;;8.10;100.00;100040.53;5010821;28;20123;-73
2023/12/10 09:28:14;;;;;;;49.28;5.95;;;;;;;8.15;100.00;100037.72;5034791;28;20428;-73
2023/12/10 09:30:40;;;;;;;60.70;6.57;;;;;;;8.20;100.00;100018.34;5028389;28;20037;-73
2023/12/10 09:33:05;;;;;;;62.67;7.50;;;;;;;8.25;100.00;100007.22;5035755;28;20061;-73
2023/12/10 09:35:31;;;;;;;52.30;6.57;;;;;;;8.33;100.00;100005.78;5028335;28;20033;-73
2023/12/10 09:37:56;;;;;;;61.40;7.55;;;;;;;8.37;100.00;100017.09;5035792;28;20112;-73
2023/12/10 09:40:22;;;;;;;63.58;7.38;;;;;;;8.43;100.00;100027.81;5035727;28;20395;-73
2023/12/10 09:42:47;;;;;;;62.22;5.82;;;;;;;8.49;100.00;100026.66;5037749;28;20029;-73
2023/12/10 09:45:13;;;;;;;51.45;6.68;;;;;;;8.54;100.00;100020.25;5037651;28;20033;-73
2023/12/10 09:47:40;;;;;;;62.55;7.15;;;;;;;8.58;100.00;100024.09;5020220;28;20026;-73
2023/12/10 09:50:06;;;;;;;65.55;7.65;;;;;;;8.66;100.00;100011.53;5042608;28;20035;-73
2023/12/10 09:52:31;;;;;;;62.78;7.55;;;;;;;8.68;100.00;99987.97;5040970;28;20479;-73
2023/12/10 09:54:57;;;;;;;58.00;6.60;;;;;;;8.73;100.00;99996.25;5041184;28;20428;-74
2023/12/10 09:57:23;;;;;;;60.90;7.65;;;;;;;8.79;100.00;99985.09;5039132;28;20036;-73
2023/12/10 09:59:48;;;;;;;61.90;7.65;;;;;;;8.85;100.00;99984.75;5021295;28;20030;-73
2023/12/10 10:02:15;;;;;;;52.38;7.00;;;;;;;8.91;100.00;99985.50;5039057;28;20029;-73
2023/12/10 10:04:41;;;;;;;52.83;7.18;;;;;;;8.95;100.00;99987.41;5005839;28;20044;-73
2023/12/10 10:07:07;;;;;;;65.07;8.50;;;;;;;9.05;100.00;99988.38;5020324;28;20045;-73
2023/12/10 10:09:36;;;;;;;60.97;7.65;;;;;;;9.13;100.00;99988.53;5037893;28;20029;-73
2023/12/10 10:12:02;;;;;;;61.55;7.75;;;;;;;9.17;100.00;99997.91;5038921;28;20025;-73
2023/12/10 10:14:27;;;;;;;57.17;7.18;;;;;;;9.25;100.00;100007.53;5037512;28;20056;-74
2023/12/10 10:16:53;;;;;;;54.30;7.68;;;;;;;9.31;100.00;100005.50;5037436;28;20394;-73
2023/12/10 10:19:18;;;;;;;67.07;7.78;;;;;;;9.37;100.00;100015.41;5038858;28;20091;-73
2023/12/10 10:21:44;;;;;;;66.07;8.18;;;;;;;9.42;100.00;100006.16;5039014;28;20507;-73
2023/12/10 10:24:10;;;;;;;62.30;6.43;;;;;;;9.41;100.00;99999.81;5038919;28;20680;-73
2023/12/10 10:26:36;;;;;;;63.85;6.18;;;;;;;9.47;100.00;99992.25;5038585;28;20029;-73
2023/12/10 10:29:06;;;;;;;55.83;6.30;;;;;;;9.50;100.00;99986.09;5004334;28;20478;-73
2023/12/10 10:31:34;;;;;;;61.72;6.90;;;;;;;9.50;100.00;99975.00;5021011;28;20029;-73
2023/12/10 10:34:04;;;;;;;48.47;6.40;;;;;;;9.56;100.00;99980.19;5038699;28;20730;-73
2023/12/10 10:36:30;;;;;;;50.67;6.00;;;;;;;9.55;100.00;99984.06;5036710;28;20060;-74
2023/12/10 10:38:56;;;;;;;54.63;6.90;;;;;;;9.58;100.00;99982.66;5020791;28;20112;-73
2023/12/10 10:41:22;;;;;;;35.65;5.10;;;;;;;9.58;100.00;99960.47;5038436;28;20036;-74
2023/12/10 10:43:48;;;;;;;36.13;5.45;;;;;;;9.59;100.00;99946.31;5036864;28;20089;-74
2023/12/10 10:46:14;;;;;;;37.13;4.97;;;;;;;9.61;100.00;99944.09;5036866;28;20446;-74
2023/12/10 10:48:40;;;;;;;43.00;5.78;;;;;;;9.61;100.00;99944.09;5038436;28;20038;-74
2023/12/10 10:51:05;;;;;;;39.20;6.07;;;;;;;9.65;100.00;99926.84;5045289;28;20509;-74
2023/12/10 10:53:33;;;;;;;48.22;5.88;;;;;;;9.65;100.00;99918.53;5034677;28;20108;-73
2023/12/10 10:55:59;;;;;;;39.58;5.45;;;;;;;9.68;100.00;99915.16;5036921;28;20477;-74
2023/12/10 10:58:28;;;;;;;30.02;4.25;;;;;;;9.68;100.00;99910.41;5003870;28;20079;-74
2023/12/10 11:00:57;;;;;;;42.53;5.00;;;;;;;9.73;100.00;99890.91;5037445;28;20030;-74
2023/12/10 11:03:29;;;;;;;34.97;4.97;;;;;;;9.76;100.00;99892.28;5036867;28;20055;-74
2023/12/10 11:05:56;;;;;;;33.40;4.60;;;;;;;9.79;100.00;99894.44;5037792;28;20056;-74
2023/12/10 11:08:24;;;;;;;35.17;4.38;;;;;;;9.81;100.00;99872.78;5036737;28;20057;-74
2023/12/10 11:10:51;;;;;;;35.03;4.38;;;;;;;9.85;100.00;99876.56;5036686;28;20041;-74